Aviation Digital Data Service (ADDS)

Output produced by TAFs form (2220 UTC 02 December 2016)
found at http://aviationweather.gov/adds/tafs/
 
KTCS 021742Z 0218/0318 16007KT P6SM FEW050 SCT120 SCT220 
     FM030000 03007KT P6SM SCT050 BKN100 BKN200 
     FM030600 03013G23KT P6SM VCSH FEW030 BKN050 OVC100 
     FM030900 03018G28KT P6SM -SHRASN SCT030 OVC080 
     FM031200 02020G30KT 5SM -RASN SCT020 BKN030 OVC060 
     TEMPO 0312/0316 3SM RASN OVC020